Main page
METAR-TAF:

METAR-TAF

Airports :

Aurora State Airport

Aurora, Oregon, United States

latitude: 45-14-56N, longitude: 122-45-56W, elevation: 194 ft

Current weather observation

The report was made 55 minutes ago, at 13:53 UTC
Calm wind
Temperature 61°F
Humidity 77%
Pressure 29.95 in. Hg
Visibility: 10 miles
Clear sky

METAR: KUAO 211353Z 00000KT 10SM CLR 16/12 A2995 RMK AO2 SLP139 T01560122

Time: 07:48 (14:48 UTC)

Forecast

The report was made 3 hours and 28 minutes ago, at 11:20 UTC
Forecast valid from 21 at 12 UTC to 22 at 12 UTC
Wind 3 mph from the North
Visibility: 6 miles
Clear sky

TAF: KUAO 211120Z 2112/2212 01003KT P6SM SKC

Weather observations and forecasts of more than 4000 airports (METAR and TAF reports).

The available stations are represented by yellow and red dots on the map.

Hover mouse over dot to see the name of the station.

Then click to see weather observations and forecasts.

To change the map : click on the green buttons with a black cross to zoom in, on the green button with a dash to zoom out, or on the green arrows for adjacent maps.


METAR-TAF: